sensor_id;sensor_type;location;lat;lon;timestamp;temperature;humidity
12843;DHT22;35724;49.324;-123.118;2023-06-24T00:00:52;26.80;61.50
12843;DHT22;35724;49.324;-123.118;2023-06-24T00:10:59;26.80;59.90
12843;DHT22;35724;49.324;-123.118;2023-06-24T00:21:11;26.70;57.90
12843;DHT22;35724;49.324;-123.118;2023-06-24T00:31:17;26.70;56.30
12843;DHT22;35724;49.324;-123.118;2023-06-24T00:41:28;26.80;55.70
12843;DHT22;35724;49.324;-123.118;2023-06-24T00:51:35;26.80;54.10
12843;DHT22;35724;49.324;-123.118;2023-06-24T01:02:10;26.80;53.80
12843;DHT22;35724;49.324;-123.118;2023-06-24T01:12:27;26.90;53.20
12843;DHT22;35724;49.324;-123.118;2023-06-24T01:34:04;27.00;51.80
12843;DHT22;35724;49.324;-123.118;2023-06-24T01:44:15;27.00;51.40
12843;DHT22;35724;49.324;-123.118;2023-06-24T01:54:27;27.00;50.40
12843;DHT22;35724;49.324;-123.118;2023-06-24T02:04:35;27.00;50.00
12843;DHT22;35724;49.324;-123.118;2023-06-24T02:14:49;27.00;50.00
12843;DHT22;35724;49.324;-123.118;2023-06-24T02:25:05;27.00;50.30
12843;DHT22;35724;49.324;-123.118;2023-06-24T02:35:14;27.10;51.80
12843;DHT22;35724;49.324;-123.118;2023-06-24T02:45:22;27.20;52.50
12843;DHT22;35724;49.324;-123.118;2023-06-24T02:55:32;27.20;51.40
12843;DHT22;35724;49.324;-123.118;2023-06-24T03:05:42;27.30;51.80
12843;DHT22;35724;49.324;-123.118;2023-06-24T03:15:56;27.30;51.80
12843;DHT22;35724;49.324;-123.118;2023-06-24T03:26:07;27.30;50.10
12843;DHT22;35724;49.324;-123.118;2023-06-24T03:36:16;27.30;49.40
12843;DHT22;35724;49.324;-123.118;2023-06-24T03:46:23;27.30;49.60
12843;DHT22;35724;49.324;-123.118;2023-06-24T03:56:32;27.30;48.70
12843;DHT22;35724;49.324;-123.118;2023-06-24T04:06:40;27.40;48.60
12843;DHT22;35724;49.324;-123.118;2023-06-24T04:16:51;27.30;49.50
12843;DHT22;35724;49.324;-123.118;2023-06-24T04:26:59;27.30;50.20
12843;DHT22;35724;49.324;-123.118;2023-06-24T04:37:08;27.30;50.30
12843;DHT22;35724;49.324;-123.118;2023-06-24T04:47:15;27.40;51.80
12843;DHT22;35724;49.324;-123.118;2023-06-24T04:57:28;27.30;51.70
12843;DHT22;35724;49.324;-123.118;2023-06-24T05:07:35;27.40;51.90
12843;DHT22;35724;49.324;-123.118;2023-06-24T05:17:44;27.30;52.00
12843;DHT22;35724;49.324;-123.118;2023-06-24T05:27:51;27.40;51.20
12843;DHT22;35724;49.324;-123.118;2023-06-24T05:38:03;27.50;53.10
12843;DHT22;35724;49.324;-123.118;2023-06-24T05:48:17;27.50;55.00
12843;DHT22;35724;49.324;-123.118;2023-06-24T05:58:26;27.50;56.00
12843;DHT22;35724;49.324;-123.118;2023-06-24T06:08:33;27.50;56.30
12843;DHT22;35724;49.324;-123.118;2023-06-24T06:18:45;27.50;56.60
12843;DHT22;35724;49.324;-123.118;2023-06-24T06:28:57;27.60;56.80
12843;DHT22;35724;49.324;-123.118;2023-06-24T06:39:06;27.60;56.80
12843;DHT22;35724;49.324;-123.118;2023-06-24T10:08:09;27.60;54.30
12843;DHT22;35724;49.324;-123.118;2023-06-24T10:18:39;27.60;54.20
12843;DHT22;35724;49.324;-123.118;2023-06-24T10:39:57;27.50;54.00
12843;DHT22;35724;49.324;-123.118;2023-06-24T11:36:18;27.40;52.20
12843;DHT22;35724;49.324;-123.118;2023-06-24T11:58:56;27.40;51.80
12843;DHT22;35724;49.324;-123.118;2023-06-24T12:09:18;27.40;51.40
12843;DHT22;35724;49.324;-123.118;2023-06-24T12:19:32;27.40;51.20
12843;DHT22;35724;49.324;-123.118;2023-06-24T12:41:40;27.30;50.70
12843;DHT22;35724;49.324;-123.118;2023-06-24T12:52:00;27.30;50.50
12843;DHT22;35724;49.324;-123.118;2023-06-24T13:02:33;27.30;50.80
12843;DHT22;35724;49.324;-123.118;2023-06-24T13:13:06;27.30;50.90
12843;DHT22;35724;49.324;-123.118;2023-06-24T13:23:24;27.30;51.00
12843;DHT22;35724;49.324;-123.118;2023-06-24T13:46:09;27.30;51.10
12843;DHT22;35724;49.324;-123.118;2023-06-24T14:21:31;27.30;51.40
12843;DHT22;35724;49.324;-123.118;2023-06-24T14:31:49;27.20;51.50
12843;DHT22;35724;49.324;-123.118;2023-06-24T14:42:59;27.20;51.70
12843;DHT22;35724;49.324;-123.118;2023-06-24T14:53:18;27.20;51.80
12843;DHT22;35724;49.324;-123.118;2023-06-24T15:04:07;27.20;51.90
12843;DHT22;35724;49.324;-123.118;2023-06-24T15:14:57;27.20;52.00
12843;DHT22;35724;49.324;-123.118;2023-06-24T16:21:03;27.40;52.40
12843;DHT22;35724;49.324;-123.118;2023-06-24T16:31:10;27.50;51.20
12843;DHT22;35724;49.324;-123.118;2023-06-24T16:41:19;27.40;51.30
12843;DHT22;35724;49.324;-123.118;2023-06-24T16:51:26;27.30;51.90
12843;DHT22;35724;49.324;-123.118;2023-06-24T17:01:34;27.30;52.20
12843;DHT22;35724;49.324;-123.118;2023-06-24T17:11:41;27.30;51.90
12843;DHT22;35724;49.324;-123.118;2023-06-24T17:21:51;27.30;52.00
12843;DHT22;35724;49.324;-123.118;2023-06-24T17:31:58;27.20;52.20
12843;DHT22;35724;49.324;-123.118;2023-06-24T17:42:07;27.20;52.40
12843;DHT22;35724;49.324;-123.118;2023-06-24T17:52:14;27.30;52.30
12843;DHT22;35724;49.324;-123.118;2023-06-24T18:02:22;27.20;52.20
12843;DHT22;35724;49.324;-123.118;2023-06-24T18:12:29;27.20;52.20
12843;DHT22;35724;49.324;-123.118;2023-06-24T18:22:38;27.20;52.10
12843;DHT22;35724;49.324;-123.118;2023-06-24T18:32:45;27.10;51.70
12843;DHT22;35724;49.324;-123.118;2023-06-24T18:42:54;27.00;52.00
12843;DHT22;35724;49.324;-123.118;2023-06-24T18:53:01;27.00;52.30
12843;DHT22;35724;49.324;-123.118;2023-06-24T19:03:09;27.00;52.50
12843;DHT22;35724;49.324;-123.118;2023-06-24T19:13:16;26.70;52.10
12843;DHT22;35724;49.324;-123.118;2023-06-24T19:23:25;26.50;52.30
12843;DHT22;35724;49.324;-123.118;2023-06-24T19:33:32;26.50;52.10
12843;DHT22;35724;49.324;-123.118;2023-06-24T19:43:46;26.50;52.70
12843;DHT22;35724;49.324;-123.118;2023-06-24T19:53:53;26.50;53.00
12843;DHT22;35724;49.324;-123.118;2023-06-24T20:04:01;26.50;53.20
12843;DHT22;35724;49.324;-123.118;2023-06-24T20:14:08;26.60;53.50
12843;DHT22;35724;49.324;-123.118;2023-06-24T20:24:17;26.60;53.40
12843;DHT22;35724;49.324;-123.118;2023-06-24T20:34:24;26.50;53.20
12843;DHT22;35724;49.324;-123.118;2023-06-24T20:44:33;26.40;53.10
12843;DHT22;35724;49.324;-123.118;2023-06-24T20:54:39;26.40;53.00
12843;DHT22;35724;49.324;-123.118;2023-06-24T21:04:48;26.40;52.80
12843;DHT22;35724;49.324;-123.118;2023-06-24T21:14:55;26.30;52.70
12843;DHT22;35724;49.324;-123.118;2023-06-24T21:25:05;26.30;52.70
12843;DHT22;35724;49.324;-123.118;2023-06-24T21:35:12;26.30;52.90
12843;DHT22;35724;49.324;-123.118;2023-06-24T21:45:20;26.30;53.00
12843;DHT22;35724;49.324;-123.118;2023-06-24T21:55:27;26.30;53.20
12843;DHT22;35724;49.324;-123.118;2023-06-24T22:05:36;26.30;53.10
12843;DHT22;35724;49.324;-123.118;2023-06-24T22:15:43;26.20;52.70
12843;DHT22;35724;49.324;-123.118;2023-06-24T22:25:53;26.20;52.40
12843;DHT22;35724;49.324;-123.118;2023-06-24T22:35:59;26.20;52.50
12843;DHT22;35724;49.324;-123.118;2023-06-24T22:46:08;26.20;52.70
12843;DHT22;35724;49.324;-123.118;2023-06-24T22:56:15;26.30;52.70
12843;DHT22;35724;49.324;-123.118;2023-06-24T23:06:24;26.30;52.80
12843;DHT22;35724;49.324;-123.118;2023-06-24T23:16:31;26.30;53.10
12843;DHT22;35724;49.324;-123.118;2023-06-24T23:26:44;26.40;53.20
12843;DHT22;35724;49.324;-123.118;2023-06-24T23:36:55;26.30;53.30
12843;DHT22;35724;49.324;-123.118;2023-06-24T23:47:05;26.30;53.30
12843;DHT22;35724;49.324;-123.118;2023-06-24T23:57:12;26.30;53.20
